Time;durP1;ratioP1;P1;durP2;ratioP2;P2;SDS_P1;SDS_P2;PMS_P1;PMS_P2;Temp;Humidity;BMP_temperature;BMP_pressure;BME280_temperature;BME280_humidity;BME280_pressure;Samples;Min_cycle;Max_cycle;Signal;HPM_P1;HPM_P2
2022/10/11 00:00:38;;;;;;;1.30;1.30;;;19.30;56.10;;;;;;4989783;28;20802;-73
2022/10/11 00:03:04;;;;;;;1.50;1.20;;;19.20;56.40;;;;;;4989347;28;20525;-72
2022/10/11 00:05:30;;;;;;;1.60;1.20;;;18.80;59.00;;;;;;4991226;28;20174;-73
2022/10/11 00:07:56;;;;;;;1.90;1.63;;;18.80;59.10;;;;;;4991522;28;20491;-73
2022/10/11 00:10:22;;;;;;;2.93;1.97;;;18.90;58.90;;;;;;4990759;28;20207;-73
2022/10/11 00:12:48;;;;;;;1.57;1.30;;;19.10;57.60;;;;;;4989651;28;20351;-73
2022/10/11 00:15:16;;;;;;;2.17;1.30;;;19.10;57.00;;;;;;4989647;28;20437;-73
2022/10/11 00:17:42;;;;;;;2.83;1.77;;;19.10;57.00;;;;;;4991247;28;20424;-71
2022/10/11 00:20:09;;;;;;;1.37;1.33;;;19.10;56.60;;;;;;4989621;28;20424;-73
2022/10/11 00:22:36;;;;;;;1.87;1.33;;;19.00;58.20;;;;;;4989951;28;20813;-73
2022/10/11 00:25:02;;;;;;;1.57;1.47;;;19.10;57.10;;;;;;4988280;28;20454;-73
2022/10/11 00:27:27;;;;;;;2.03;1.63;;;19.00;57.40;;;;;;4989266;28;20473;-73
2022/10/11 00:29:53;;;;;;;1.30;1.30;;;19.10;56.80;;;;;;4990992;28;20561;-73
2022/10/11 00:32:19;;;;;;;3.20;1.87;;;19.10;57.00;;;;;;4990614;28;20190;-73
2022/10/11 00:34:44;;;;;;;1.40;1.20;;;19.10;56.60;;;;;;4988117;28;20186;-73
2022/10/11 00:37:10;;;;;;;1.30;1.23;;;19.10;57.00;;;;;;4986358;28;20196;-73
2022/10/11 00:39:35;;;;;;;1.80;1.40;;;19.10;57.00;;;;;;4997745;28;20190;-73
2022/10/11 00:42:01;;;;;;;1.30;1.30;;;19.10;57.00;;;;;;4993650;28;20192;-73
2022/10/11 00:44:28;;;;;;;8.23;2.60;;;19.00;56.90;;;;;;4991246;28;20198;-73
2022/10/11 00:46:56;;;;;;;1.43;1.37;;;19.10;56.70;;;;;;4989452;28;20343;-73
2022/10/11 00:49:36;;;;;;;1.40;1.40;;;19.00;56.90;;;;;;4998429;28;20932;-73
2022/10/11 00:52:14;;;;;;;1.60;1.50;;;19.00;57.90;;;;;;4991986;28;20907;-73
2022/10/11 00:54:42;;;;;;;1.30;1.20;;;19.00;57.00;;;;;;4991770;28;20914;-73
2022/10/11 00:57:13;;;;;;;1.30;1.20;;;19.00;56.90;;;;;;4993845;28;20448;-73
2022/10/11 00:59:44;;;;;;;1.30;1.20;;;19.10;57.00;;;;;;4993250;28;20877;-73
2022/10/11 01:02:11;;;;;;;1.40;1.40;;;19.10;57.00;;;;;;4989989;28;20478;-71
2022/10/11 01:04:37;;;;;;;1.30;1.20;;;19.10;57.00;;;;;;4985415;28;20425;-73
2022/10/11 01:07:02;;;;;;;1.47;1.43;;;19.30;56.30;;;;;;4993385;28;20476;-73
2022/10/11 01:09:29;;;;;;;1.60;1.43;;;19.20;56.10;;;;;;4991690;28;20674;-73
2022/10/11 01:11:59;;;;;;;1.40;1.40;;;19.10;57.00;;;;;;4991581;28;20221;-73
2022/10/11 01:15:04;;;;;;;3.97;2.10;;;19.10;56.90;;;;;;4994546;28;20953;-75
2022/10/11 01:18:01;;;;;;;1.93;1.83;;;19.00;56.80;;;;;;4984906;28;20530;-73
2022/10/11 01:20:44;;;;;;;1.30;1.27;;;18.90;56.90;;;;;;4979242;28;20487;-74
2022/10/11 01:23:25;;;;;;;1.90;1.67;;;18.90;56.50;;;;;;4993227;28;20461;-73
2022/10/11 01:26:16;;;;;;;1.30;1.17;;;19.00;55.80;;;;;;4993919;28;20402;-73
2022/10/11 01:28:56;;;;;;;1.43;1.27;;;19.00;55.00;;;;;;4988029;28;20967;-73
2022/10/11 01:31:39;;;;;;;1.50;1.40;;;18.80;56.10;;;;;;4990316;28;20511;-72
2022/10/11 01:34:14;;;;;;;1.60;1.43;;;18.70;56.00;;;;;;4992265;28;20826;-73
2022/10/11 01:37:02;;;;;;;1.70;1.30;;;18.60;56.60;;;;;;4992196;28;20422;-73
2022/10/11 01:39:34;;;;;;;1.30;1.30;;;18.70;55.10;;;;;;4985520;28;20433;-73
2022/10/11 01:42:04;;;;;;;1.30;1.30;;;18.70;55.70;;;;;;4990669;28;20433;-73
2022/10/11 01:44:30;;;;;;;2.10;1.57;;;18.80;54.70;;;;;;4986250;28;20798;-73
2022/10/11 01:46:56;;;;;;;1.50;1.30;;;18.90;54.70;;;;;;4993308;28;20488;-73
2022/10/11 01:49:22;;;;;;;1.67;1.47;;;18.70;54.80;;;;;;4993682;28;20440;-74
2022/10/11 01:51:51;;;;;;;1.30;1.10;;;18.60;55.60;;;;;;4990544;28;20188;-73
2022/10/11 01:54:31;;;;;;;1.77;1.40;;;18.50;55.80;;;;;;4988387;28;20194;-71
2022/10/11 01:56:57;;;;;;;1.50;1.40;;;18.50;55.80;;;;;;4990729;28;20451;-73
2022/10/11 01:59:40;;;;;;;3.20;1.37;;;18.70;54.30;;;;;;4992516;28;20437;-73
2022/10/11 02:02:30;;;;;;;1.80;1.63;;;18.90;53.70;;;;;;4991950;28;20278;-73
2022/10/11 02:05:26;;;;;;;1.30;1.30;;;18.80;53.80;;;;;;4989803;28;20524;-73
2022/10/11 02:08:22;;;;;;;1.77;1.30;;;18.50;54.80;;;;;;4992962;28;20842;-73
2022/10/11 02:11:08;;;;;;;1.43;1.40;;;18.40;54.40;;;;;;4992287;28;20486;-73
2022/10/11 02:14:19;;;;;;;1.87;1.57;;;18.20;54.60;;;;;;4985011;28;20452;-73
2022/10/11 02:16:52;;;;;;;1.67;1.47;;;18.30;55.40;;;;;;4985919;28;20521;-73
2022/10/11 02:19:24;;;;;;;1.73;1.50;;;18.40;55.10;;;;;;4992906;28;20473;-73
2022/10/11 02:21:56;;;;;;;2.70;1.83;;;18.40;55.20;;;;;;4991597;28;20440;-73
2022/10/11 02:24:29;;;;;;;1.63;1.47;;;18.40;55.80;;;;;;4991807;28;20418;-73
2022/10/11 02:26:57;;;;;;;1.50;1.50;;;18.50;55.40;;;;;;4991307;28;20481;-73
2022/10/11 02:29:27;;;;;;;1.40;1.40;;;18.60;55.00;;;;;;4992710;28;20411;-73
2022/10/11 02:31:57;;;;;;;1.50;1.33;;;18.70;55.10;;;;;;4990738;28;20962;-73
2022/10/11 02:34:54;;;;;;;1.30;1.27;;;18.70;54.70;;;;;;4991829;28;20432;-73
2022/10/11 02:37:38;;;;;;;2.47;2.27;;;18.70;54.50;;;;;;4969997;28;20702;-73
2022/10/11 02:40:17;;;;;;;1.97;1.67;;;18.50;55.90;;;;;;4971204;28;20517;-73
2022/10/11 02:43:00;;;;;;;1.40;1.30;;;18.30;56.30;;;;;;4970322;28;20453;-73
2022/10/11 02:45:38;;;;;;;1.97;1.47;;;18.20;56.20;;;;;;4951267;29;20410;-73
2022/10/11 02:48:06;;;;;;;1.20;1.10;;;18.20;56.20;;;;;;4973275;28;20603;-73
2022/10/11 02:50:31;;;;;;;1.37;1.33;;;18.20;56.20;;;;;;4970347;28;20410;-73
2022/10/11 02:52:57;;;;;;;1.37;1.23;;;18.30;56.30;;;;;;4973496;28;20565;-72
2022/10/11 02:55:23;;;;;;;2.07;1.93;;;18.50;55.20;;;;;;4969040;28;20231;-73
2022/10/11 02:57:48;;;;;;;1.60;1.50;;;18.40;55.90;;;;;;4964573;28;20186;-71
2022/10/11 03:00:14;;;;;;;1.30;1.20;;;18.30;56.80;;;;;;4980166;28;20571;-73
2022/10/11 03:02:40;;;;;;;1.27;1.10;;;18.30;57.50;;;;;;4988598;28;20208;-73
2022/10/11 03:05:06;;;;;;;1.90;1.50;;;18.30;57.90;;;;;;4985583;28;20821;-73
2022/10/11 03:07:31;;;;;;;1.60;1.60;;;18.40;57.60;;;;;;4968248;28;20217;-73
2022/10/11 03:09:57;;;;;;;1.50;1.40;;;18.40;57.00;;;;;;4970078;28;20524;-73
2022/10/11 03:12:22;;;;;;;2.23;1.80;;;18.50;56.80;;;;;;4969415;28;20220;-74
2022/10/11 03:14:48;;;;;;;1.60;1.30;;;18.50;56.80;;;;;;5000227;28;20189;-73
2022/10/11 03:17:14;;;;;;;1.43;1.37;;;18.40;56.90;;;;;;4990204;28;20189;-73
2022/10/11 03:19:39;;;;;;;1.47;1.40;;;18.40;57.40;;;;;;4991922;28;20555;-73
2022/10/11 03:22:05;;;;;;;2.17;1.60;;;18.40;57.60;;;;;;4991562;28;20193;-74
2022/10/11 03:24:30;;;;;;;1.60;1.47;;;18.60;56.50;;;;;;4989459;28;20196;-73
2022/10/11 03:26:56;;;;;;;1.30;1.30;;;18.70;55.30;;;;;;4989988;28;20241;-73
2022/10/11 03:29:21;;;;;;;1.50;1.43;;;18.80;54.60;;;;;;4990939;28;20595;-73
2022/10/11 03:31:47;;;;;;;1.40;1.30;;;18.70;56.10;;;;;;4991315;28;20664;-73
2022/10/11 03:34:13;;;;;;;1.70;1.50;;;18.60;56.60;;;;;;4990112;28;20189;-73
2022/10/11 03:36:38;;;;;;;1.50;1.20;;;18.60;56.60;;;;;;4989681;28;20184;-73
2022/10/11 03:39:04;;;;;;;1.50;1.10;;;18.50;56.50;;;;;;4989401;28;20556;-73
2022/10/11 03:41:30;;;;;;;1.53;1.47;;;18.60;56.60;;;;;;4991322;28;20182;-73
2022/10/11 03:43:56;;;;;;;1.43;1.37;;;18.60;56.60;;;;;;4989963;28;20839;-73
2022/10/11 03:46:21;;;;;;;1.30;1.20;;;18.60;56.60;;;;;;4991169;28;20444;-74
2022/10/11 03:48:47;;;;;;;1.70;1.43;;;18.60;56.60;;;;;;4990489;28;20181;-73
2022/10/11 03:51:13;;;;;;;1.40;1.30;;;18.60;56.60;;;;;;4991385;28;20177;-73
2022/10/11 03:53:40;;;;;;;1.73;1.43;;;18.60;56.60;;;;;;4990948;28;20187;-73
2022/10/11 03:56:06;;;;;;;1.77;1.33;;;18.60;57.00;;;;;;4991303;28;20431;-73
2022/10/11 03:58:32;;;;;;;1.40;1.23;;;18.60;56.60;;;;;;5005562;28;20473;-72
2022/10/11 04:00:58;;;;;;;1.33;1.30;;;18.70;56.70;;;;;;4990502;28;20479;-74
2022/10/11 04:03:24;;;;;;;1.30;1.20;;;18.80;55.90;;;;;;4991381;28;20193;-73
2022/10/11 04:05:50;;;;;;;1.50;1.30;;;18.80;56.40;;;;;;4991532;28;20413;-73
2022/10/11 04:08:15;;;;;;;4.20;2.70;;;18.70;56.70;;;;;;4990207;28;20240;-73
2022/10/11 04:10:41;;;;;;;2.27;1.50;;;18.70;56.70;;;;;;4987120;28;20191;-73
2022/10/11 04:13:08;;;;;;;1.30;1.27;;;18.70;56.70;;;;;;4989679;28;20254;-72
2022/10/11 04:15:34;;;;;;;1.30;1.20;;;18.70;56.70;;;;;;4994230;28;20227;-74
2022/10/11 04:18:00;;;;;;;1.70;1.30;;;18.60;56.60;;;;;;4994615;28;20780;-73
2022/10/11 04:20:26;;;;;;;12.93;3.20;;;18.80;56.30;;;;;;4994655;28;20409;-73
2022/10/11 04:22:51;;;;;;;5.33;1.70;;;18.70;56.70;;;;;;4989894;28;20210;-73
2022/10/11 04:25:17;;;;;;;2.10;1.40;;;18.70;56.70;;;;;;4994014;28;20190;-72
2022/10/11 04:27:42;;;;;;;1.30;1.27;;;18.80;56.80;;;;;;4994859;28;20279;-73
2022/10/11 04:30:10;;;;;;;1.30;1.10;;;18.70;56.70;;;;;;4994909;28;20542;-73
2022/10/11 04:32:35;;;;;;;1.73;1.30;;;18.70;56.70;;;;;;4992862;28;20218;-72
2022/10/11 04:35:01;;;;;;;1.50;1.50;;;18.60;57.10;;;;;;4993080;28;20472;-72
2022/10/11 04:37:26;;;;;;;1.30;1.20;;;18.50;57.30;;;;;;4988223;28;20266;-72
2022/10/11 04:39:52;;;;;;;1.27;1.20;;;18.60;56.60;;;;;;4993164;28;20177;-72
2022/10/11 04:42:19;;;;;;;2.00;1.30;;;18.60;56.60;;;;;;4990991;28;20221;-73
2022/10/11 04:44:44;;;;;;;1.60;1.43;;;18.50;57.50;;;;;;4990785;28;20182;-72
2022/10/11 04:47:10;;;;;;;1.73;1.50;;;18.20;58.50;;;;;;4992346;28;20470;-72
2022/10/11 04:49:36;;;;;;;1.30;1.30;;;17.80;62.40;;;;;;4992122;28;20312;-71
2022/10/11 04:52:01;;;;;;;2.00;1.70;;;17.80;63.40;;;;;;4986717;28;20178;-72
2022/10/11 04:54:27;;;;;;;1.63;1.60;;;18.00;62.00;;;;;;4989413;28;20353;-72
2022/10/11 04:56:53;;;;;;;1.50;1.40;;;17.90;62.50;;;;;;4992220;28;20234;-71
2022/10/11 04:59:18;;;;;;;2.33;1.53;;;18.00;63.30;;;;;;4988528;28;20269;-72
2022/10/11 05:01:44;;;;;;;1.53;1.43;;;18.30;61.20;;;;;;4993464;28;20190;-71
2022/10/11 05:04:09;;;;;;;1.67;1.60;;;18.40;59.70;;;;;;4990192;28;20812;-72
2022/10/11 05:06:35;;;;;;;1.50;1.50;;;18.50;59.80;;;;;;4993891;28;20207;-72
2022/10/11 05:09:01;;;;;;;1.30;1.20;;;18.60;58.60;;;;;;4993312;28;20186;-72
2022/10/11 05:11:26;;;;;;;2.37;1.87;;;18.70;58.50;;;;;;4993335;28;20189;-72
2022/10/11 05:13:52;;;;;;;1.50;1.30;;;18.80;58.00;;;;;;4991949;28;20216;-71
2022/10/11 05:16:17;;;;;;;1.50;1.40;;;18.80;57.60;;;;;;4990833;28;20174;-72
2022/10/11 05:18:43;;;;;;;2.23;2.10;;;18.80;57.80;;;;;;4991639;28;20291;-72
2022/10/11 05:21:16;;;;;;;1.30;1.30;;;18.80;57.00;;;;;;4992010;28;20182;-72
2022/10/11 05:23:43;;;;;;;1.63;1.47;;;18.80;57.20;;;;;;4988544;28;20198;-72
2022/10/11 05:26:09;;;;;;;1.40;1.30;;;19.00;56.90;;;;;;4989564;28;20870;-72
2022/10/11 05:28:34;;;;;;;1.30;1.20;;;18.80;57.40;;;;;;4992141;28;20444;-72
2022/10/11 05:31:00;;;;;;;1.50;1.40;;;18.80;57.20;;;;;;4988007;28;20180;-72
2022/10/11 05:33:26;;;;;;;1.80;1.57;;;18.90;56.90;;;;;;4990572;28;20219;-72
2022/10/11 05:35:51;;;;;;;2.43;1.83;;;18.80;56.80;;;;;;4991746;28;20186;-72
2022/10/11 05:38:17;;;;;;;1.60;1.57;;;18.40;58.60;;;;;;4992571;28;20624;-72
2022/10/11 05:40:43;;;;;;;2.47;1.77;;;18.40;59.30;;;;;;4993375;28;20264;-72
2022/10/11 05:43:09;;;;;;;1.73;1.70;;;18.30;59.90;;;;;;4993006;28;20521;-73
2022/10/11 05:45:37;;;;;;;1.90;1.53;;;18.50;59.60;;;;;;4991380;28;20251;-72
2022/10/11 05:48:02;;;;;;;1.60;1.50;;;18.40;59.70;;;;;;4990630;28;20209;-72
2022/10/11 05:50:28;;;;;;;3.30;1.40;;;18.50;58.90;;;;;;4993050;28;20939;-72
2022/10/11 05:52:55;;;;;;;1.37;1.37;;;18.60;58.40;;;;;;4991484;28;20207;-72
2022/10/11 05:55:20;;;;;;;2.00;1.90;;;18.60;58.40;;;;;;4989506;28;20443;-71
2022/10/11 05:57:46;;;;;;;1.50;1.40;;;18.40;60.00;;;;;;4989124;28;20523;-73
2022/10/11 06:00:12;;;;;;;1.80;1.70;;;18.30;60.40;;;;;;4991516;28;20194;-72
2022/10/11 06:02:37;;;;;;;1.50;1.40;;;18.50;59.80;;;;;;4990161;28;20214;-71
2022/10/11 06:05:03;;;;;;;1.30;1.30;;;18.50;60.00;;;;;;4990402;28;20458;-72
2022/10/11 06:07:29;;;;;;;1.30;1.20;;;18.60;58.90;;;;;;4989240;28;20217;-72
2022/10/11 06:09:54;;;;;;;1.23;1.20;;;18.70;58.30;;;;;;4991790;28;20265;-72
2022/10/11 06:12:20;;;;;;;2.50;1.70;;;18.60;57.90;;;;;;4991095;28;20300;-72
2022/10/11 06:14:46;;;;;;;1.43;1.40;;;18.70;58.20;;;;;;4991236;28;20304;-72
2022/10/11 06:17:12;;;;;;;3.60;2.30;;;18.80;58.70;;;;;;4989531;28;20445;-73
2022/10/11 06:19:37;;;;;;;2.50;1.83;;;18.90;58.20;;;;;;4988888;28;20190;-71
2022/10/11 06:22:03;;;;;;;2.03;1.70;;;18.90;57.40;;;;;;4987218;28;20224;-72
2022/10/11 06:24:28;;;;;;;1.90;1.80;;;19.00;57.00;;;;;;4989053;28;20193;-72
2022/10/11 06:26:54;;;;;;;1.50;1.40;;;18.60;58.60;;;;;;4990614;28;20229;-72
2022/10/11 06:29:20;;;;;;;2.13;2.00;;;18.30;61.00;;;;;;4990108;28;20184;-72
2022/10/11 06:31:47;;;;;;;3.10;1.77;;;18.20;62.30;;;;;;4989643;28;20193;-71
2022/10/11 06:34:13;;;;;;;1.30;1.10;;;18.10;63.20;;;;;;4989527;28;20804;-70
2022/10/11 06:36:39;;;;;;;3.53;2.23;;;17.90;63.70;;;;;;4986712;28;20440;-72
2022/10/11 06:39:04;;;;;;;1.90;1.50;;;18.10;64.10;;;;;;4988975;28;20440;-72
2022/10/11 06:41:30;;;;;;;2.90;1.60;;;18.10;63.90;;;;;;4990516;28;21161;-72
2022/10/11 06:43:56;;;;;;;1.83;1.40;;;18.00;64.40;;;;;;4991279;28;20217;-72
2022/10/11 06:46:24;;;;;;;2.63;1.80;;;18.30;63.10;;;;;;4988963;28;20332;-72
2022/10/11 06:48:50;;;;;;;2.27;2.07;;;18.60;60.40;;;;;;4988763;28;20433;-73
2022/10/11 06:51:19;;;;;;;1.37;1.37;;;18.70;60.10;;;;;;4988753;28;20444;-72
2022/10/11 06:53:49;;;;;;;3.70;2.83;;;19.00;58.30;;;;;;4990308;28;20559;-73
2022/10/11 06:56:15;;;;;;;9.63;3.00;;;18.70;57.30;;;;;;4990792;28;20441;-72
2022/10/11 06:58:40;;;;;;;1.50;1.50;;;18.90;57.80;;;;;;4989367;28;20972;-72
2022/10/11 07:01:08;;;;;;;1.70;1.60;;;19.00;57.50;;;;;;4987851;28;20197;-72
2022/10/11 07:03:34;;;;;;;1.97;1.63;;;19.00;56.90;;;;;;4989407;28;20216;-72
2022/10/11 07:06:03;;;;;;;1.93;1.80;;;19.10;57.00;;;;;;4988351;28;20445;-72
2022/10/11 07:08:30;;;;;;;1.60;1.60;;;19.10;57.00;;;;;;4990106;28;20221;-72
2022/10/11 07:11:04;;;;;;;1.73;1.70;;;19.20;56.80;;;;;;4987363;28;20476;-72
2022/10/11 07:13:29;;;;;;;2.43;1.83;;;19.20;55.70;;;;;;4988085;28;20544;-73
2022/10/11 07:15:55;;;;;;;2.77;2.33;;;19.30;55.70;;;;;;4988576;28;20561;-72
2022/10/11 07:18:21;;;;;;;1.67;1.53;;;19.10;55.40;;;;;;4988619;28;20221;-72
2022/10/11 07:20:47;;;;;;;1.90;1.70;;;19.10;56.60;;;;;;4988089;28;20550;-72
2022/10/11 07:23:12;;;;;;;2.03;1.90;;;19.20;56.70;;;;;;4987915;28;20464;-72
2022/10/11 07:25:38;;;;;;;5.80;2.50;;;19.20;55.90;;;;;;4989356;28;20879;-72
2022/10/11 07:28:04;;;;;;;3.10;2.23;;;19.20;54.70;;;;;;4989626;28;20213;-73
2022/10/11 07:30:30;;;;;;;1.67;1.60;;;19.30;54.50;;;;;;4988459;28;20187;-71
2022/10/11 07:32:55;;;;;;;1.50;1.40;;;19.30;54.70;;;;;;4986243;28;20595;-73
2022/10/11 07:35:21;;;;;;;2.63;2.27;;;19.20;54.60;;;;;;4988671;28;20338;-72
2022/10/11 07:37:46;;;;;;;2.00;1.80;;;19.30;53.80;;;;;;4990816;28;20194;-72
2022/10/11 07:40:12;;;;;;;3.93;2.47;;;19.30;54.10;;;;;;4988076;28;20276;-72
2022/10/11 07:42:38;;;;;;;2.20;1.80;;;19.40;54.20;;;;;;4987165;28;20198;-72
2022/10/11 07:45:04;;;;;;;2.47;2.27;;;19.30;54.00;;;;;;4988727;28;20437;-72
2022/10/11 07:47:30;;;;;;;2.57;2.00;;;19.40;53.20;;;;;;4987543;28;20218;-72
2022/10/11 07:49:55;;;;;;;1.60;1.60;;;19.20;54.10;;;;;;4990724;28;20440;-72
2022/10/11 07:52:21;;;;;;;2.03;1.87;;;19.20;53.70;;;;;;4993918;28;20758;-71
2022/10/11 07:54:49;;;;;;;2.10;1.80;;;19.10;53.40;;;;;;4994361;28;20174;-71
2022/10/11 07:57:15;;;;;;;11.10;2.20;;;19.10;53.70;;;;;;4994552;28;20193;-72
2022/10/11 07:59:42;;;;;;;1.50;1.50;;;19.10;53.70;;;;;;4991803;28;20443;-72
2022/10/11 08:02:11;;;;;;;2.03;1.77;;;19.10;54.20;;;;;;4990256;28;20227;-73
2022/10/11 08:04:38;;;;;;;1.70;1.60;;;19.20;53.60;;;;;;4990630;28;20839;-72
2022/10/11 08:07:04;;;;;;;1.90;1.60;;;19.00;54.00;;;;;;4992868;28;20816;-72
2022/10/11 08:09:30;;;;;;;2.50;2.03;;;19.00;56.40;;;;;;4992410;28;20433;-71
2022/10/11 08:11:56;;;;;;;1.40;1.40;;;19.10;53.90;;;;;;4993127;28;20437;-72
2022/10/11 08:14:21;;;;;;;2.57;1.83;;;19.20;52.60;;;;;;4994019;28;20431;-71
2022/10/11 08:16:47;;;;;;;2.30;1.77;;;19.30;52.70;;;;;;4983544;28;20293;-77
2022/10/11 08:19:13;;;;;;;2.30;1.87;;;19.30;52.30;;;;;;4988871;28;20190;-73
2022/10/11 08:21:39;;;;;;;12.87;2.07;;;19.20;53.50;;;;;;5009540;28;20426;-72
2022/10/11 08:24:05;;;;;;;8.20;2.07;;;19.20;52.90;;;;;;4994576;28;20220;-75
2022/10/11 08:26:32;;;;;;;3.07;2.10;;;19.20;53.50;;;;;;4995291;28;20257;-72
2022/10/11 08:29:00;;;;;;;3.20;2.20;;;19.20;53.80;;;;;;4993043;28;20413;-77
2022/10/11 08:31:26;;;;;;;2.50;2.10;;;19.10;54.60;;;;;;4994400;28;20417;-71
2022/10/11 08:33:52;;;;;;;2.03;1.77;;;19.30;54.50;;;;;;4994148;28;20449;-73
2022/10/11 08:36:17;;;;;;;2.67;2.00;;;19.30;54.00;;;;;;4993596;28;20183;-73
2022/10/11 08:38:43;;;;;;;2.23;1.70;;;19.30;54.50;;;;;;4994135;28;20174;-72
2022/10/11 08:41:36;;;;;;;1.77;1.70;;;19.50;53.80;;;;;;4991417;28;20186;-72
2022/10/11 08:44:22;;;;;;;2.43;2.17;;;19.40;53.10;;;;;;4993523;28;21113;-73
2022/10/11 08:46:52;;;;;;;3.20;1.93;;;19.50;52.90;;;;;;4994267;28;20464;-74
2022/10/11 08:49:23;;;;;;;2.83;2.03;;;19.60;53.00;;;;;;4995058;28;20429;-73
2022/10/11 08:52:03;;;;;;;3.33;2.50;;;19.50;53.10;;;;;;4992897;28;20509;-72
2022/10/11 08:54:53;;;;;;;2.20;2.00;;;19.60;53.60;;;;;;4990086;28;20437;-72
2022/10/11 08:57:23;;;;;;;3.70;2.10;;;19.60;52.10;;;;;;4990656;28;20470;-72
2022/10/11 09:00:01;;;;;;;2.37;1.87;;;19.70;52.10;;;;;;4994161;28;20431;-72
2022/10/11 09:02:37;;;;;;;1.80;1.80;;;19.80;51.70;;;;;;4991206;28;20983;-72
2022/10/11 09:05:04;;;;;;;2.33;2.10;;;19.70;52.20;;;;;;4989195;28;20443;-72
2022/10/11 09:08:07;;;;;;;3.00;2.67;;;19.60;51.00;;;;;;4991518;28;20556;-72
2022/10/11 09:10:51;;;;;;;1.90;1.80;;;19.50;52.10;;;;;;4987272;28;20505;-72
2022/10/11 09:13:16;;;;;;;1.87;1.70;;;19.70;51.30;;;;;;4992412;28;20984;-72
2022/10/11 09:15:55;;;;;;;1.83;1.73;;;19.60;50.90;;;;;;4993696;28;20440;-72
2022/10/11 09:18:45;;;;;;;2.00;1.90;;;19.70;50.80;;;;;;4991519;28;20193;-73
2022/10/11 09:21:25;;;;;;;4.90;2.40;;;19.90;50.80;;;;;;4993779;28;20418;-72
2022/10/11 09:24:10;;;;;;;2.77;2.13;;;20.00;49.60;;;;;;4990691;28;20469;-72
2022/10/11 09:27:13;;;;;;;2.70;1.93;;;19.90;49.70;;;;;;4982796;28;20800;-72
2022/10/11 09:29:48;;;;;;;2.63;2.00;;;19.90;49.60;;;;;;4984621;28;20533;-73
2022/10/11 09:32:19;;;;;;;1.70;1.60;;;19.80;51.20;;;;;;4992887;28;20549;-72
2022/10/11 09:34:47;;;;;;;2.07;1.67;;;20.10;50.20;;;;;;4993817;28;20473;-73
2022/10/11 09:37:25;;;;;;;2.10;2.00;;;20.30;49.00;;;;;;4992940;28;20458;-73
2022/10/11 09:40:21;;;;;;;2.63;1.60;;;20.30;47.80;;;;;;4991827;28;20451;-74
2022/10/11 09:42:46;;;;;;;2.57;1.90;;;20.40;49.20;;;;;;4991085;28;20575;-72
2022/10/11 09:45:17;;;;;;;1.60;1.53;;;20.40;47.70;;;;;;5013397;28;20518;-72
2022/10/11 09:47:42;;;;;;;1.77;1.60;;;20.40;48.00;;;;;;5013382;28;20203;-72
2022/10/11 09:50:20;;;;;;;3.80;2.70;;;20.40;47.40;;;;;;5004713;28;20446;-72
2022/10/11 09:52:58;;;;;;;2.90;2.20;;;20.30;48.70;;;;;;4993773;28;20670;-73
2022/10/11 09:55:38;;;;;;;3.10;1.90;;;20.40;48.20;;;;;;4992689;28;21067;-73
2022/10/11 09:58:05;;;;;;;1.87;1.60;;;20.30;48.20;;;;;;4987288;28;20433;-74
2022/10/11 10:00:32;;;;;;;2.03;1.93;;;20.40;48.60;;;;;;4990548;28;20439;-72
2022/10/11 10:03:03;;;;;;;2.40;1.97;;;20.50;47.10;;;;;;4991298;28;20458;-72
2022/10/11 10:05:34;;;;;;;1.50;1.40;;;20.50;47.90;;;;;;4990427;28;20431;-72
2022/10/11 10:08:07;;;;;;;1.67;1.50;;;20.10;49.10;;;;;;4992228;28;20560;-72
2022/10/11 10:10:39;;;;;;;2.33;2.00;;;20.20;48.80;;;;;;4986063;28;21119;-73
2022/10/11 10:13:25;;;;;;;2.60;1.80;;;20.30;50.10;;;;;;4992027;28;20465;-72
2022/10/11 10:15:54;;;;;;;1.70;1.67;;;20.10;47.80;;;;;;4988901;28;21011;-72
2022/10/11 10:18:33;;;;;;;1.70;1.60;;;19.80;48.90;;;;;;4992591;28;20446;-72
2022/10/11 10:20:59;;;;;;;3.10;1.77;;;19.60;51.20;;;;;;4992270;28;20421;-73
2022/10/11 10:23:34;;;;;;;2.50;1.73;;;20.10;51.70;;;;;;4992816;28;20448;-73
2022/10/11 10:26:16;;;;;;;1.30;1.27;;;20.40;48.30;;;;;;4992783;28;20422;-72
2022/10/11 10:28:54;;;;;;;2.00;1.70;;;20.60;47.40;;;;;;4992237;28;20970;-74
2022/10/11 10:31:23;;;;;;;1.53;1.43;;;20.40;47.70;;;;;;4992321;28;20486;-72
2022/10/11 10:33:52;;;;;;;2.10;1.70;;;20.50;47.30;;;;;;5007255;28;20449;-72
2022/10/11 10:36:24;;;;;;;2.53;1.53;;;20.50;46.50;;;;;;4992234;28;20407;-72
2022/10/11 10:38:53;;;;;;;2.37;1.80;;;20.70;47.80;;;;;;4992128;28;20462;-73
2022/10/11 10:41:19;;;;;;;2.30;2.10;;;20.80;48.30;;;;;;4991948;28;20437;-72
2022/10/11 10:43:57;;;;;;;4.40;2.30;;;20.80;48.20;;;;;;4992107;28;20444;-72
2022/10/11 10:46:50;;;;;;;1.40;1.40;;;20.60;49.50;;;;;;4992182;28;20276;-72
2022/10/11 10:49:31;;;;;;;1.67;1.60;;;20.20;49.30;;;;;;4992381;28;20408;-72
2022/10/11 10:52:34;;;;;;;2.17;1.97;;;20.40;49.50;;;;;;5006483;28;20967;-72
2022/10/11 10:55:25;;;;;;;1.60;1.60;;;20.20;47.00;;;;;;5001037;28;20527;-71
2022/10/11 10:57:50;;;;;;;1.87;1.70;;;20.00;49.70;;;;;;5000470;28;20443;-71
2022/10/11 11:00:21;;;;;;;1.53;1.50;;;19.90;49.10;;;;;;4988945;28;20759;-74
2022/10/11 11:02:55;;;;;;;1.70;1.50;;;19.90;49.50;;;;;;4987231;28;20209;-72
2022/10/11 11:05:29;;;;;;;2.47;1.90;;;19.80;49.80;;;;;;4981655;28;20522;-72
2022/10/11 11:08:25;;;;;;;3.23;1.80;;;19.80;49.50;;;;;;4987161;28;20821;-71
2022/10/11 11:11:35;;;;;;;2.17;1.90;;;19.90;49.00;;;;;;5003612;28;20970;-71
2022/10/11 11:14:25;;;;;;;1.77;1.70;;;20.00;49.10;;;;;;4988314;28;20514;-71
2022/10/11 11:17:04;;;;;;;1.90;1.77;;;20.00;48.70;;;;;;4990814;28;20419;-71
2022/10/11 11:20:11;;;;;;;1.80;1.70;;;20.10;47.70;;;;;;4985153;28;20438;-71
2022/10/11 11:22:54;;;;;;;2.27;1.90;;;20.10;48.70;;;;;;4985427;28;21045;-72
2022/10/11 11:25:26;;;;;;;1.80;1.50;;;20.10;48.20;;;;;;4986925;28;20435;-71
2022/10/11 11:28:24;;;;;;;1.63;1.40;;;20.20;48.60;;;;;;4992037;28;20468;-71
2022/10/11 11:31:03;;;;;;;1.50;1.33;;;20.30;48.60;;;;;;4991043;28;20431;-71
2022/10/11 11:33:50;;;;;;;1.97;1.63;;;20.40;48.50;;;;;;4984174;28;20522;-71
2022/10/11 11:36:45;;;;;;;2.27;1.80;;;20.30;48.30;;;;;;4991867;28;20480;-72
2022/10/11 11:39:20;;;;;;;1.80;1.47;;;20.40;46.70;;;;;;4972855;28;20471;-72
2022/10/11 11:42:02;;;;;;;2.30;1.97;;;20.50;47.10;;;;;;4987137;28;20427;-72
2022/10/11 11:44:32;;;;;;;1.77;1.63;;;20.50;46.10;;;;;;4974351;28;20413;-72
2022/10/11 11:47:07;;;;;;;3.10;2.13;;;20.50;47.00;;;;;;4989076;28;20471;-72
2022/10/11 11:49:36;;;;;;;1.67;1.60;;;20.60;46.90;;;;;;4991958;28;20408;-72
2022/10/11 11:52:10;;;;;;;1.87;1.53;;;20.60;46.50;;;;;;4991227;28;20807;-72
2022/10/11 11:54:41;;;;;;;2.00;1.67;;;20.30;44.70;;;;;;4989877;28;20452;-73
2022/10/11 11:57:31;;;;;;;1.70;1.57;;;19.20;49.10;;;;;;4990999;28;20806;-71
2022/10/11 12:00:05;;;;;;;2.60;1.80;;;19.60;49.50;;;;;;4987776;28;20425;-71
2022/10/11 12:02:40;;;;;;;1.70;1.60;;;20.30;47.10;;;;;;4971830;28;20514;-72
2022/10/11 12:05:11;;;;;;;6.13;1.90;;;20.40;47.30;;;;;;4988217;28;20860;-73
2022/10/11 12:07:55;;;;;;;2.20;2.00;;;20.60;44.40;;;;;;4991652;28;20522;-72
2022/10/11 12:10:30;;;;;;;2.43;2.03;;;20.60;45.50;;;;;;5006964;28;20416;-72
2022/10/11 12:13:05;;;;;;;5.63;2.03;;;20.80;44.50;;;;;;4985114;28;20486;-73
2022/10/11 12:15:31;;;;;;;4.13;2.20;;;20.90;44.60;;;;;;4988276;28;20988;-72
2022/10/11 12:18:15;;;;;;;1.80;1.53;;;20.90;45.70;;;;;;4990874;28;20529;-73
2022/10/11 12:20:41;;;;;;;2.10;1.60;;;20.90;45.70;;;;;;4986480;28;20953;-72
2022/10/11 12:23:29;;;;;;;2.47;1.60;;;20.90;44.30;;;;;;4986790;28;20468;-72
2022/10/11 12:26:26;;;;;;;5.20;2.10;;;20.80;44.40;;;;;;4989587;28;20451;-72
2022/10/11 12:29:17;;;;;;;2.70;2.07;;;20.60;45.10;;;;;;4986724;28;20471;-73
2022/10/11 12:31:58;;;;;;;1.87;1.73;;;20.80;45.00;;;;;;4979965;28;20507;-72
2022/10/11 12:34:36;;;;;;;3.00;1.90;;;20.60;45.20;;;;;;4989014;28;20455;-72
2022/10/11 12:37:30;;;;;;;2.37;1.60;;;20.80;44.50;;;;;;4994258;28;21023;-71
2022/10/11 12:39:58;;;;;;;2.13;1.97;;;20.50;43.50;;;;;;4996579;28;20452;-72
2022/10/11 12:42:27;;;;;;;2.20;2.00;;;20.40;44.40;;;;;;4990958;28;20488;-72
2022/10/11 12:45:11;;;;;;;1.70;1.70;;;20.50;44.70;;;;;;4987135;28;20443;-72
2022/10/11 12:47:59;;;;;;;1.80;1.67;;;20.60;45.70;;;;;;4992158;28;20559;-73
2022/10/11 12:50:42;;;;;;;2.03;1.83;;;20.70;44.60;;;;;;4988800;28;20439;-75
2022/10/11 12:53:32;;;;;;;2.43;1.97;;;20.70;45.90;;;;;;4985455;28;20455;-75
2022/10/11 12:56:00;;;;;;;3.50;2.93;;;20.60;45.20;;;;;;4988981;28;20904;-75
2022/10/11 12:58:28;;;;;;;2.97;1.73;;;20.80;44.90;;;;;;4994958;28;20590;-75
2022/10/11 13:00:55;;;;;;;2.80;2.37;;;20.90;43.10;;;;;;4992373;28;20444;-72
2022/10/11 13:03:43;;;;;;;2.83;2.13;;;20.60;43.90;;;;;;4991912;28;20569;-73
2022/10/11 13:06:17;;;;;;;2.00;1.60;;;20.70;44.80;;;;;;4992343;28;20429;-73
2022/10/11 13:08:46;;;;;;;1.63;1.57;;;20.90;43.90;;;;;;4990939;28;20514;-71